Time;durP1;ratioP1;P1;durP2;ratioP2;P2;SDS_P1;SDS_P2;PMS_P1;PMS_P2;Temp;Humidity;BMP_temperature;BMP_pressure;BME280_temperature;BME280_humidity;BME280_pressure;Samples;Min_cycle;Max_cycle;Signal;HPM_P1;HPM_P2
2022/02/11 00:02:17;;;;;;;4.00;1.30;;;3.90;99.90;;;;;;5032796;28;20294;-47
2022/02/11 00:07:45;;;;;;;9.33;1.50;;;3.90;99.90;;;;;;4985227;28;20220;-49
2022/02/11 00:10:12;;;;;;;7.23;1.90;;;3.80;99.90;;;;;;5017161;28;20212;-47
2022/02/11 00:12:40;;;;;;;6.73;1.80;;;3.80;99.90;;;;;;5028229;28;20192;-50
2022/02/11 00:17:53;;;;;;;6.73;1.70;;;3.80;99.90;;;;;;5021182;28;20351;-47
2022/02/11 00:20:20;;;;;;;7.33;1.47;;;3.80;99.90;;;;;;5032577;28;20266;-49
2022/02/11 00:22:47;;;;;;;3.73;1.40;;;3.80;99.90;;;;;;5021865;28;20226;-48
2022/02/11 00:25:14;;;;;;;8.60;2.70;;;3.80;99.90;;;;;;5028505;28;20200;-47
2022/02/11 00:28:23;;;;;;;7.70;1.70;;;3.80;99.90;;;;;;5023011;28;20208;-52
2022/02/11 00:33:29;;;;;;;11.33;2.17;;;3.70;99.90;;;;;;5029169;28;20652;-51
2022/02/11 00:35:59;;;;;;;15.47;1.73;;;3.70;99.90;;;;;;5028265;28;20242;-47
2022/02/11 00:38:37;;;;;;;11.27;2.40;;;3.70;99.90;;;;;;5035674;28;20215;-53
2022/02/11 00:44:40;;;;;;;11.80;2.00;;;3.70;99.90;;;;;;5038364;28;20211;-47
2022/02/11 01:03:46;;;;;;;9.30;1.97;;;3.50;99.90;;;;;;5021428;28;20226;-49
2022/02/11 01:06:15;;;;;;;16.17;2.10;;;3.50;99.90;;;;;;5029694;28;20655;-53
2022/02/11 01:08:42;;;;;;;6.20;1.60;;;3.50;99.90;;;;;;5034689;28;20219;-52
2022/02/11 01:11:13;;;;;;;6.87;1.97;;;3.50;99.90;;;;;;5034200;28;20214;-50
2022/02/11 01:13:40;;;;;;;8.63;1.77;;;3.50;99.90;;;;;;5026622;28;20191;-50
2022/02/11 01:16:14;;;;;;;6.57;1.60;;;3.50;99.90;;;;;;5035788;28;20674;-45
2022/02/11 01:18:47;;;;;;;5.43;1.77;;;3.50;99.90;;;;;;5016125;28;20717;-47
2022/02/11 01:21:21;;;;;;;10.23;1.87;;;3.40;99.90;;;;;;5028676;28;20200;-45
2022/02/11 01:23:55;;;;;;;9.33;1.77;;;3.40;99.90;;;;;;5024130;28;20219;-45
2022/02/11 01:26:35;;;;;;;11.53;2.70;;;3.40;99.90;;;;;;5033933;28;20528;-47
2022/02/11 01:29:28;;;;;;;5.93;1.60;;;3.40;99.90;;;;;;5024975;28;20670;-49
2022/02/11 01:32:04;;;;;;;9.80;2.13;;;3.40;99.90;;;;;;5034108;28;20200;-49
2022/02/11 01:34:48;;;;;;;5.97;1.83;;;3.40;99.90;;;;;;5017510;28;20202;-46
2022/02/11 01:37:28;;;;;;;10.60;1.83;;;3.50;99.90;;;;;;5035968;28;20278;-46
2022/02/11 01:51:19;;;;;;;5.13;2.00;;;3.60;99.90;;;;;;5001399;28;20299;-48
2022/02/11 01:53:53;;;;;;;5.63;2.20;;;3.60;99.90;;;;;;5020502;28;20188;-47
2022/02/11 01:56:35;;;;;;;9.40;2.13;;;3.60;99.90;;;;;;5037241;28;20203;-51
2022/02/11 01:59:34;;;;;;;6.40;2.23;;;3.60;99.90;;;;;;5025685;28;20211;-46
2022/02/11 02:05:37;;;;;;;12.23;2.17;;;3.60;99.90;;;;;;5018139;28;20256;-44
2022/02/11 02:13:57;;;;;;;8.57;1.67;;;3.70;99.90;;;;;;5025467;28;20305;-45
2022/02/11 02:20:05;;;;;;;4.00;1.50;;;3.70;99.90;;;;;;5031207;28;20717;-43
2022/02/11 02:25:16;;;;;;;10.00;2.47;;;3.60;99.90;;;;;;5032003;28;20700;-44
2022/02/11 02:28:13;;;;;;;10.73;2.03;;;3.60;99.90;;;;;;5027954;28;20999;-44
2022/02/11 02:36:52;;;;;;;12.63;2.00;;;3.60;99.90;;;;;;5020349;28;20572;-45
2022/02/11 02:39:34;;;;;;;7.73;2.23;;;3.50;99.90;;;;;;5039080;28;20599;-46
2022/02/11 02:50:24;;;;;;;7.30;1.93;;;3.40;99.90;;;;;;5034420;28;20330;-46
2022/02/11 02:58:28;;;;;;;7.23;1.90;;;3.30;99.90;;;;;;5037675;28;20223;-46
2022/02/11 03:34:34;;;;;;;10.23;2.47;;;2.90;99.90;;;;;;5037899;28;20188;-45
2022/02/11 03:34:50;;;;;;;7.00;2.20;;;2.90;99.90;;;;;;5027964;28;20283;-48
2022/02/11 03:48:59;;;;;;;11.90;2.73;;;2.70;99.90;;;;;;5036442;28;20217;-50
2022/02/11 03:51:41;;;;;;;9.30;2.47;;;2.60;99.90;;;;;;5025088;28;20219;-44
2022/02/11 04:20:12;;;;;;;9.53;2.77;;;2.50;99.90;;;;;;5038299;28;20231;-45
2022/02/11 04:56:02;;;;;;;9.73;3.03;;;2.20;99.90;;;;;;5046125;28;20310;-48
2022/02/11 05:01:14;;;;;;;10.67;3.93;;;2.20;99.90;;;;;;5080670;28;20197;-46
2022/02/11 05:03:42;;;;;;;7.60;2.97;;;2.20;99.90;;;;;;5076156;28;20198;-51
2022/02/11 05:06:10;;;;;;;9.23;2.90;;;2.20;99.90;;;;;;5088981;28;20197;-47
2022/02/11 05:08:37;;;;;;;7.43;3.00;;;2.20;99.90;;;;;;5078307;28;20214;-49
2022/02/11 05:11:09;;;;;;;8.20;2.90;;;2.10;99.90;;;;;;5064318;28;20694;-45
2022/02/11 05:13:36;;;;;;;10.97;3.60;;;2.10;99.90;;;;;;5076987;28;20273;-48
2022/02/11 05:16:03;;;;;;;9.03;3.43;;;2.20;99.90;;;;;;5083858;28;20591;-47
2022/02/11 05:18:30;;;;;;;9.23;3.53;;;2.20;99.90;;;;;;5076764;28;20659;-46
2022/02/11 05:20:58;;;;;;;8.03;3.53;;;2.10;99.90;;;;;;5072756;28;20241;-48
2022/02/11 05:23:25;;;;;;;8.50;3.43;;;2.10;99.90;;;;;;5081038;28;20202;-50
2022/02/11 05:25:52;;;;;;;5.13;2.97;;;2.10;99.90;;;;;;5070312;28;20216;-48
2022/02/11 05:28:19;;;;;;;22.77;4.73;;;2.20;99.90;;;;;;5078774;28;20240;-51
2022/02/11 05:30:45;;;;;;;37.50;7.37;;;2.20;99.90;;;;;;5076840;28;20286;-45
2022/02/11 05:33:13;;;;;;;17.53;4.50;;;2.20;99.90;;;;;;5084492;28;20202;-46
2022/02/11 05:35:40;;;;;;;10.43;3.60;;;2.20;99.90;;;;;;5075695;28;20203;-48
2022/02/11 05:38:08;;;;;;;8.70;3.47;;;2.30;99.90;;;;;;5073456;28;20230;-48
2022/02/11 05:40:35;;;;;;;7.97;2.90;;;2.30;99.90;;;;;;5073080;28;20256;-49
2022/02/11 05:43:02;;;;;;;13.30;4.30;;;2.20;99.90;;;;;;5036830;28;20225;-47
2022/02/11 05:45:28;;;;;;;7.10;3.10;;;2.20;99.90;;;;;;5060102;28;20222;-48
2022/02/11 05:47:55;;;;;;;8.63;3.73;;;2.20;99.90;;;;;;5056683;28;20608;-48
2022/02/11 05:50:22;;;;;;;11.27;3.80;;;2.20;99.90;;;;;;5066369;28;20381;-50
2022/02/11 05:52:49;;;;;;;10.87;3.70;;;2.20;99.90;;;;;;5060805;28;20228;-49
2022/02/11 05:55:17;;;;;;;11.67;4.00;;;2.20;99.90;;;;;;5067426;28;20914;-46
2022/02/11 05:57:44;;;;;;;13.20;4.17;;;2.20;99.90;;;;;;5050309;28;20214;-46
2022/02/11 06:00:12;;;;;;;6.90;3.53;;;2.20;99.90;;;;;;5061768;28;20194;-47
2022/02/11 06:02:39;;;;;;;7.40;3.73;;;2.20;99.90;;;;;;5056269;28;20195;-46
2022/02/11 06:05:06;;;;;;;6.80;3.90;;;2.30;99.90;;;;;;5056123;28;20596;-49
2022/02/11 06:07:33;;;;;;;5.83;3.53;;;2.30;99.90;;;;;;5066706;28;20230;-46
2022/02/11 06:09:59;;;;;;;14.57;3.90;;;2.30;99.90;;;;;;5054274;28;20679;-47
2022/02/11 06:12:28;;;;;;;9.87;3.97;;;2.30;99.90;;;;;;5048831;28;20218;-44
2022/02/11 06:14:55;;;;;;;9.27;3.10;;;2.30;99.90;;;;;;5065414;28;20195;-44
2022/02/11 06:17:23;;;;;;;8.90;3.43;;;2.30;99.90;;;;;;5062398;28;20195;-44
2022/02/11 06:19:50;;;;;;;11.53;3.90;;;2.30;99.90;;;;;;5051684;28;20209;-46
2022/02/11 06:22:16;;;;;;;8.73;3.77;;;2.20;99.90;;;;;;5059050;28;20190;-46
2022/02/11 06:24:43;;;;;;;10.87;3.87;;;2.20;99.90;;;;;;5052073;28;20293;-48
2022/02/11 06:27:10;;;;;;;7.23;3.50;;;2.20;99.90;;;;;;5065827;28;20209;-43
2022/02/11 06:29:38;;;;;;;8.67;3.20;;;2.20;99.90;;;;;;5046136;28;20222;-47
2022/02/11 06:32:06;;;;;;;7.07;4.57;;;2.20;99.90;;;;;;5064210;28;20195;-45
2022/02/11 06:34:32;;;;;;;8.57;3.47;;;2.30;99.90;;;;;;5047923;28;20206;-45
2022/02/11 06:36:59;;;;;;;10.43;3.77;;;2.30;99.90;;;;;;5071172;28;20217;-48
2022/02/11 06:39:26;;;;;;;11.53;4.07;;;2.30;99.90;;;;;;5052703;28;20222;-46
2022/02/11 06:41:53;;;;;;;11.13;4.30;;;2.40;99.90;;;;;;5070524;28;20213;-48
2022/02/11 06:44:20;;;;;;;10.03;3.70;;;2.40;99.90;;;;;;5040503;28;20552;-46
2022/02/11 06:46:48;;;;;;;10.53;3.97;;;2.40;99.90;;;;;;5063432;28;20962;-45
2022/02/11 06:49:15;;;;;;;7.10;4.30;;;2.40;99.90;;;;;;5053004;28;20222;-42
2022/02/11 06:51:42;;;;;;;11.27;4.53;;;2.50;99.90;;;;;;5049029;28;20214;-44
2022/02/11 06:54:08;;;;;;;8.63;4.40;;;2.50;99.90;;;;;;5058056;28;20199;-42
2022/02/11 06:56:35;;;;;;;13.90;5.63;;;2.60;99.90;;;;;;5048790;28;20186;-43
2022/02/11 06:59:01;;;;;;;18.73;5.93;;;2.70;99.90;;;;;;5038879;28;20217;-44
2022/02/11 07:01:28;;;;;;;15.90;5.90;;;2.70;99.90;;;;;;5063052;28;20202;-42
2022/02/11 07:03:56;;;;;;;14.60;6.10;;;2.80;99.90;;;;;;5058185;28;20630;-43
2022/02/11 07:06:23;;;;;;;29.57;8.50;;;2.90;99.90;;;;;;5057457;28;20793;-43
2022/02/11 07:08:50;;;;;;;14.23;6.47;;;2.90;99.90;;;;;;5067430;28;20227;-43
2022/02/11 07:11:17;;;;;;;19.43;7.40;;;3.00;99.90;;;;;;5062429;28;20217;-61
2022/02/11 07:13:44;;;;;;;14.00;6.53;;;3.10;99.90;;;;;;5065450;28;20564;-63
2022/02/11 07:16:11;;;;;;;12.40;5.37;;;3.10;99.90;;;;;;5052924;28;20228;-63
2022/02/11 07:18:38;;;;;;;11.63;5.23;;;3.10;99.90;;;;;;5065683;28;20257;-63
2022/02/11 07:21:07;;;;;;;11.97;4.90;;;3.10;99.90;;;;;;5057112;28;20295;-63
2022/02/11 07:23:34;;;;;;;11.13;5.13;;;3.10;99.90;;;;;;5070852;28;20218;-63
2022/02/11 07:26:01;;;;;;;12.43;5.47;;;3.10;99.90;;;;;;5058852;28;20209;-44
2022/02/11 07:28:28;;;;;;;6.03;4.50;;;3.10;99.90;;;;;;5063514;28;20214;-44
2022/02/11 07:30:58;;;;;;;17.03;6.87;;;3.10;99.90;;;;;;5045839;28;20215;-42
2022/02/11 07:33:25;;;;;;;10.40;5.10;;;3.20;99.90;;;;;;5063706;28;20679;-43
2022/02/11 07:35:52;;;;;;;10.30;5.93;;;3.20;99.90;;;;;;5057286;28;20322;-43
2022/02/11 07:38:19;;;;;;;10.67;5.20;;;3.20;99.90;;;;;;5057630;28;20230;-43
2022/02/11 07:40:46;;;;;;;11.73;5.97;;;3.20;99.90;;;;;;5067164;28;20190;-43
2022/02/11 07:43:13;;;;;;;7.73;5.07;;;3.30;99.90;;;;;;5062987;28;20212;-46
2022/02/11 07:45:40;;;;;;;8.70;4.97;;;3.30;99.90;;;;;;5039580;28;20365;-44
2022/02/11 07:48:08;;;;;;;10.37;5.00;;;3.30;99.90;;;;;;5061703;28;20273;-47
2022/02/11 07:50:34;;;;;;;18.20;7.23;;;3.40;99.90;;;;;;5063866;28;20219;-42
2022/02/11 07:53:01;;;;;;;12.17;5.80;;;3.40;99.90;;;;;;5045534;28;20609;-42
2022/02/11 07:55:29;;;;;;;7.93;4.63;;;3.40;99.90;;;;;;5067285;28;20913;-44
2022/02/11 07:57:56;;;;;;;8.30;4.20;;;3.50;99.90;;;;;;5059435;28;20224;-42
2022/02/11 08:00:23;;;;;;;14.80;5.53;;;3.50;99.90;;;;;;5065483;28;20187;-42
2022/02/11 08:02:49;;;;;;;16.47;6.03;;;3.60;99.90;;;;;;5052760;28;20206;-43
2022/02/11 08:05:16;;;;;;;9.83;4.33;;;3.60;99.90;;;;;;5058824;28;20195;-42
2022/02/11 08:07:44;;;;;;;4.53;2.90;;;3.60;99.90;;;;;;5056326;28;20233;-45
2022/02/11 08:10:10;;;;;;;5.50;3.40;;;3.70;99.90;;;;;;5068260;28;20242;-44
2022/02/11 08:12:40;;;;;;;7.50;3.27;;;3.70;99.90;;;;;;5071725;28;20193;-45
2022/02/11 08:15:08;;;;;;;6.37;3.60;;;3.70;99.90;;;;;;5059805;28;20202;-44
2022/02/11 08:17:35;;;;;;;11.13;4.57;;;3.70;99.90;;;;;;5046748;28;20345;-45
2022/02/11 08:20:02;;;;;;;11.43;4.87;;;3.80;99.90;;;;;;5064207;28;20190;-44
2022/02/11 08:22:28;;;;;;;8.20;5.30;;;3.80;99.90;;;;;;5047826;28;20288;-43
2022/02/11 08:24:57;;;;;;;7.23;5.37;;;3.70;99.90;;;;;;5072122;28;20199;-44
2022/02/11 08:27:24;;;;;;;10.03;5.77;;;3.70;99.90;;;;;;5055169;28;20302;-44
2022/02/11 08:29:53;;;;;;;7.07;5.30;;;3.70;99.90;;;;;;5066242;28;20206;-45
2022/02/11 08:32:22;;;;;;;21.20;9.40;;;3.70;99.90;;;;;;5064377;28;20209;-45
2022/02/11 08:34:49;;;;;;;7.83;5.60;;;3.70;99.90;;;;;;5048694;28;20217;-46
2022/02/11 08:37:16;;;;;;;12.77;6.37;;;3.70;99.90;;;;;;5058160;28;20200;-44
2022/02/11 08:39:43;;;;;;;11.63;5.00;;;3.70;99.90;;;;;;5061100;28;20313;-47
2022/02/11 08:42:10;;;;;;;13.47;5.93;;;3.80;99.90;;;;;;5063996;28;20194;-46
2022/02/11 08:44:37;;;;;;;11.87;5.83;;;3.80;99.90;;;;;;5059473;28;20209;-46
2022/02/11 08:47:06;;;;;;;9.67;5.70;;;3.80;99.90;;;;;;5066888;28;20558;-44
2022/02/11 08:49:33;;;;;;;13.13;6.10;;;3.80;99.90;;;;;;5045399;28;20202;-44
2022/02/11 08:52:00;;;;;;;12.87;6.40;;;3.90;99.90;;;;;;5063714;28;20756;-43
2022/02/11 08:54:26;;;;;;;8.57;5.33;;;3.90;99.90;;;;;;5054492;28;20187;-45
2022/02/11 08:56:53;;;;;;;12.03;5.60;;;3.90;99.90;;;;;;5061434;28;20570;-46
2022/02/11 08:59:21;;;;;;;11.57;6.47;;;4.00;99.90;;;;;;5054825;28;20230;-47
2022/02/11 09:01:47;;;;;;;13.37;6.23;;;4.00;99.90;;;;;;5055887;28;20195;-43
2022/02/11 09:04:15;;;;;;;15.17;6.07;;;4.00;99.90;;;;;;5049559;28;20195;-44
2022/02/11 09:06:44;;;;;;;11.63;5.40;;;4.10;99.90;;;;;;5059970;28;20581;-44
2022/02/11 09:09:10;;;;;;;9.90;5.30;;;4.10;99.90;;;;;;5053563;28;20230;-44
2022/02/11 09:11:37;;;;;;;10.47;5.93;;;4.10;99.90;;;;;;5058087;28;20214;-46
2022/02/11 09:14:04;;;;;;;11.37;6.23;;;4.10;99.90;;;;;;5057840;28;20256;-45
2022/02/11 09:16:31;;;;;;;14.77;7.20;;;4.10;99.90;;;;;;5060488;28;20252;-44
2022/02/11 09:18:58;;;;;;;14.87;6.37;;;4.10;99.90;;;;;;5071564;28;20293;-45
2022/02/11 09:21:26;;;;;;;7.90;5.33;;;4.00;99.90;;;;;;5049932;28;20198;-45
2022/02/11 09:23:53;;;;;;;13.37;5.77;;;4.00;99.90;;;;;;5074819;28;20202;-43
2022/02/11 09:26:20;;;;;;;10.97;5.77;;;4.00;99.90;;;;;;5055866;28;20203;-45
2022/02/11 09:28:47;;;;;;;15.17;6.70;;;4.00;99.90;;;;;;5074725;28;20222;-43
2022/02/11 09:31:14;;;;;;;9.10;6.17;;;4.00;99.90;;;;;;5058708;28;20210;-47
2022/02/11 09:33:41;;;;;;;7.97;5.87;;;4.00;99.90;;;;;;5061232;28;20241;-43
2022/02/11 09:36:08;;;;;;;10.17;6.13;;;4.00;99.90;;;;;;5050145;28;20202;-43
2022/02/11 09:38:36;;;;;;;11.77;5.93;;;4.10;99.90;;;;;;5067609;28;21095;-45
2022/02/11 09:41:04;;;;;;;9.37;5.90;;;4.10;99.90;;;;;;5057603;28;20207;-44
2022/02/11 09:43:30;;;;;;;8.17;5.37;;;4.10;99.90;;;;;;5062291;28;20191;-43
2022/02/11 09:45:57;;;;;;;13.33;6.83;;;4.10;99.90;;;;;;5060029;28;20226;-43
2022/02/11 09:48:24;;;;;;;10.33;5.67;;;4.10;99.90;;;;;;5060647;28;20794;-44
2022/02/11 09:50:53;;;;;;;10.00;6.20;;;4.20;99.90;;;;;;5050211;28;20356;-43
2022/02/11 09:53:21;;;;;;;14.63;6.57;;;4.10;99.90;;;;;;5063394;28;20205;-46
2022/02/11 09:55:50;;;;;;;9.63;5.63;;;4.20;99.90;;;;;;5068296;28;20198;-43
2022/02/11 09:58:18;;;;;;;8.90;5.00;;;4.20;99.90;;;;;;5053218;28;20575;-45
2022/02/11 10:00:48;;;;;;;13.27;6.10;;;4.20;99.90;;;;;;5056561;28;20284;-46
2022/02/11 10:03:20;;;;;;;10.77;6.17;;;4.20;99.90;;;;;;5062012;28;20201;-43
2022/02/11 10:05:48;;;;;;;12.60;5.97;;;4.30;99.90;;;;;;5047758;28;20215;-43
2022/02/11 10:08:15;;;;;;;12.23;6.00;;;4.30;99.90;;;;;;5063532;28;20842;-46
2022/02/11 10:10:47;;;;;;;11.07;6.17;;;4.30;99.90;;;;;;5063585;28;20201;-43
2022/02/11 10:13:19;;;;;;;14.63;5.73;;;4.30;99.90;;;;;;5052245;28;20202;-44
2022/02/11 10:15:49;;;;;;;12.00;6.43;;;4.40;99.90;;;;;;5066266;28;20210;-46
2022/02/11 10:18:20;;;;;;;11.43;6.33;;;4.50;99.90;;;;;;5055732;28;20280;-43
2022/02/11 10:20:50;;;;;;;8.50;5.20;;;4.50;99.90;;;;;;5058553;28;20623;-44
2022/02/11 10:23:20;;;;;;;10.90;5.97;;;4.50;99.90;;;;;;5051838;28;20209;-43
2022/02/11 10:26:06;;;;;;;9.57;5.67;;;4.60;99.90;;;;;;5072002;28;20195;-43
2022/02/11 10:28:36;;;;;;;10.20;5.50;;;4.60;99.90;;;;;;5053054;28;20217;-42
2022/02/11 10:31:14;;;;;;;8.77;6.10;;;4.70;99.90;;;;;;5053476;28;20210;-44
2022/02/11 10:34:04;;;;;;;13.27;5.53;;;4.60;99.90;;;;;;5054072;28;20202;-44
2022/02/11 10:36:33;;;;;;;11.40;5.50;;;4.60;99.90;;;;;;5038996;28;20203;-43
2022/02/11 10:39:04;;;;;;;11.10;5.73;;;4.70;99.90;;;;;;5064471;28;20233;-43
2022/02/11 10:41:33;;;;;;;11.70;5.20;;;4.80;99.90;;;;;;5064328;28;20190;-44
2022/02/11 10:44:05;;;;;;;6.70;5.43;;;4.80;99.90;;;;;;5056927;28;20210;-42
2022/02/11 10:46:38;;;;;;;5.67;4.43;;;4.90;99.90;;;;;;5064986;28;20656;-43
2022/02/11 10:49:05;;;;;;;7.93;5.00;;;5.00;99.90;;;;;;5058239;28;20226;-43
2022/02/11 10:51:32;;;;;;;7.30;5.10;;;4.90;99.90;;;;;;5048291;28;20567;-43
2022/02/11 10:53:59;;;;;;;8.33;5.23;;;4.90;99.90;;;;;;5049239;28;20214;-43
2022/02/11 10:56:27;;;;;;;9.43;4.80;;;5.00;99.90;;;;;;5062145;28;20555;-44
2022/02/11 10:58:56;;;;;;;5.47;4.10;;;5.10;99.90;;;;;;5054005;28;20226;-43
2022/02/11 11:01:28;;;;;;;4.83;3.43;;;5.00;99.90;;;;;;5062438;28;20195;-43
2022/02/11 11:03:57;;;;;;;4.20;3.27;;;5.00;99.90;;;;;;5058670;28;20226;-44
2022/02/11 11:06:25;;;;;;;4.97;3.47;;;5.00;99.90;;;;;;5060850;28;20194;-45
2022/02/11 11:08:54;;;;;;;3.53;3.23;;;5.10;99.90;;;;;;5044004;28;22171;-46
2022/02/11 11:11:24;;;;;;;5.27;3.33;;;5.10;99.90;;;;;;5060680;28;20246;-44
2022/02/11 11:13:54;;;;;;;3.83;3.20;;;5.20;99.90;;;;;;5063579;28;20206;-43
2022/02/11 11:16:22;;;;;;;4.53;3.60;;;5.20;99.90;;;;;;5062515;28;20203;-44
2022/02/11 11:18:51;;;;;;;7.07;3.47;;;5.20;99.90;;;;;;5055541;28;20304;-45
2022/02/11 11:21:18;;;;;;;11.00;4.00;;;5.30;99.90;;;;;;5072692;28;20198;-44
2022/02/11 11:23:55;;;;;;;5.10;3.60;;;5.30;99.90;;;;;;5058705;28;20203;-48
2022/02/11 11:26:36;;;;;;;7.50;4.23;;;5.30;99.90;;;;;;5048893;28;20225;-44
2022/02/11 11:29:11;;;;;;;3.50;3.30;;;5.30;99.90;;;;;;5055307;28;20593;-45
2022/02/11 11:31:39;;;;;;;5.40;3.93;;;5.30;99.90;;;;;;5059170;28;20214;-44
2022/02/11 11:34:31;;;;;;;4.63;3.67;;;5.30;99.90;;;;;;5063415;28;20566;-49
2022/02/11 11:37:05;;;;;;;7.37;3.93;;;5.40;99.90;;;;;;5060057;28;20277;-44
2022/02/11 11:39:32;;;;;;;6.67;3.47;;;5.50;99.90;;;;;;5054949;28;20234;-46
2022/02/11 11:42:04;;;;;;;5.20;4.33;;;5.50;99.90;;;;;;5048618;28;20191;-46
2022/02/11 11:44:42;;;;;;;4.37;3.93;;;5.50;99.90;;;;;;5053809;28;20668;-43
2022/02/11 11:47:13;;;;;;;6.73;3.90;;;5.50;99.90;;;;;;5062862;28;20190;-46
2022/02/11 11:49:47;;;;;;;8.67;4.00;;;5.40;99.90;;;;;;5053542;28;20210;-45
2022/02/11 11:52:14;;;;;;;4.43;3.70;;;5.40;99.90;;;;;;5063239;28;20309;-49
2022/02/11 11:54:41;;;;;;;6.03;3.60;;;5.50;99.90;;;;;;5051248;28;20212;-49
2022/02/11 11:57:10;;;;;;;7.93;4.57;;;5.40;99.90;;;;;;5050873;28;20215;-46
2022/02/11 11:59:39;;;;;;;6.63;3.70;;;5.50;99.90;;;;;;5050570;28;20202;-50
2022/02/11 12:02:07;;;;;;;4.80;3.57;;;5.50;99.90;;;;;;5055889;28;20665;-49
2022/02/11 12:04:45;;;;;;;6.70;4.37;;;5.60;99.90;;;;;;5057382;28;20213;-49
2022/02/11 12:07:15;;;;;;;5.87;3.57;;;5.60;99.90;;;;;;5052959;28;20229;-47
2022/02/11 12:09:46;;;;;;;10.13;4.70;;;5.60;99.90;;;;;;5053691;28;20199;-47
2022/02/11 12:12:14;;;;;;;6.60;4.00;;;5.60;99.90;;;;;;5062115;28;20215;-47
2022/02/11 12:14:42;;;;;;;9.63;4.40;;;5.70;99.90;;;;;;5038187;28;20210;-46
2022/02/11 12:17:10;;;;;;;5.40;4.90;;;5.80;99.90;;;;;;5055146;28;20287;-48
2022/02/11 12:19:41;;;;;;;5.47;4.23;;;5.90;99.90;;;;;;5058557;28;20198;-47
2022/02/11 12:22:08;;;;;;;7.60;4.20;;;6.00;99.90;;;;;;5053016;28;20206;-48
2022/02/11 12:27:25;;;;;;;5.70;3.60;;;6.00;99.90;;;;;;5050363;28;20198;-51
2022/02/11 12:29:54;;;;;;;5.13;3.53;;;6.00;99.90;;;;;;5056799;28;20195;-47
2022/02/11 12:32:23;;;;;;;9.87;4.07;;;6.00;99.90;;;;;;5051860;28;20219;-47
2022/02/11 12:34:51;;;;;;;6.20;3.80;;;6.10;99.90;;;;;;5061933;28;20197;-46
2022/02/11 12:37:18;;;;;;;7.80;3.63;;;6.10;99.90;;;;;;5055506;28;20210;-47
2022/02/11 12:39:47;;;;;;;6.17;3.60;;;6.20;99.90;;;;;;5053662;28;20249;-50
2022/02/11 12:42:18;;;;;;;5.87;3.53;;;6.20;99.90;;;;;;5064363;28;20198;-48
2022/02/11 12:44:45;;;;;;;8.43;4.23;;;6.20;99.90;;;;;;5043235;28;20211;-47
2022/02/11 12:47:12;;;;;;;8.00;4.10;;;6.20;99.90;;;;;;5052528;28;20203;-48
2022/02/11 12:49:51;;;;;;;8.03;4.30;;;6.20;99.90;;;;;;5058925;28;20218;-49
2022/02/11 12:52:23;;;;;;;3.87;2.27;;;6.20;99.90;;;;;;5060781;28;20619;-51
2022/02/11 12:55:11;;;;;;;3.87;2.87;;;6.00;99.90;;;;;;5057719;28;20194;-50
2022/02/11 12:57:39;;;;;;;3.20;2.90;;;5.60;99.90;;;;;;5066757;28;20313;-48
2022/02/11 13:00:08;;;;;;;2.63;2.43;;;5.40;99.90;;;;;;5050999;28;20654;-49
2022/02/11 13:02:37;;;;;;;3.70;2.40;;;5.20;99.90;;;;;;5023809;28;20541;-46
2022/02/11 13:05:07;;;;;;;6.37;1.70;;;4.90;99.90;;;;;;5052421;28;20199;-49
2022/02/11 13:07:35;;;;;;;1.83;1.43;;;4.70;99.90;;;;;;5043688;28;20232;-49
2022/02/11 13:10:02;;;;;;;2.03;1.57;;;4.60;99.90;;;;;;5059404;28;20207;-44
2022/02/11 13:12:41;;;;;;;0.97;0.80;;;4.50;99.90;;;;;;5061534;28;20214;-43
2022/02/11 13:15:10;;;;;;;2.87;0.87;;;4.40;99.90;;;;;;5051461;28;20206;-45
2022/02/11 13:17:37;;;;;;;1.93;0.90;;;4.30;99.90;;;;;;5053427;28;20214;-45
2022/02/11 13:20:10;;;;;;;3.10;0.70;;;4.10;99.90;;;;;;5064064;28;20616;-44
2022/02/11 13:22:39;;;;;;;1.40;0.90;;;4.10;99.90;;;;;;5056434;28;20209;-45
2022/02/11 13:25:07;;;;;;;1.60;0.60;;;4.00;99.90;;;;;;5060383;28;20222;-47
2022/02/11 13:27:43;;;;;;;1.27;0.73;;;4.00;99.90;;;;;;5066523;28;20571;-46
2022/02/11 13:30:11;;;;;;;2.83;0.97;;;4.00;99.90;;;;;;5040522;28;20234;-46
2022/02/11 13:32:38;;;;;;;4.80;1.00;;;4.00;99.90;;;;;;5052606;28;20352;-44
2022/02/11 13:35:08;;;;;;;3.73;1.00;;;4.10;99.90;;;;;;5052060;28;20229;-48
2022/02/11 13:37:40;;;;;;;2.30;0.90;;;4.10;99.90;;;;;;5059301;28;20218;-44
2022/02/11 13:40:15;;;;;;;3.90;0.97;;;4.20;99.90;;;;;;5056526;28;20201;-48
2022/02/11 13:42:53;;;;;;;2.37;1.17;;;4.20;99.90;;;;;;5069190;28;20186;-48
2022/02/11 13:45:20;;;;;;;1.13;0.93;;;4.30;99.90;;;;;;5052797;28;20233;-45
2022/02/11 13:48:06;;;;;;;3.80;1.10;;;4.40;99.90;;;;;;5064176;28;20218;-44
2022/02/11 13:50:53;;;;;;;2.30;0.97;;;4.50;99.90;;;;;;5063722;28;20191;-49
2022/02/11 13:53:31;;;;;;;1.80;0.80;;;4.60;99.90;;;;;;5056139;28;20999;-44
2022/02/11 13:55:58;;;;;;;2.93;0.70;;;4.60;99.90;;;;;;5057677;28;20588;-46
2022/02/11 13:58:27;;;;;;;2.80;1.20;;;4.70;99.90;;;;;;5065740;28;20202;-45
2022/02/11 14:00:54;;;;;;;2.30;0.80;;;4.80;99.90;;;;;;5050084;28;20627;-46
2022/02/11 14:03:26;;;;;;;1.50;1.07;;;4.80;99.90;;;;;;5054254;28;22650;-45
2022/02/11 14:05:55;;;;;;;7.30;1.07;;;5.30;99.90;;;;;;5063361;28;20695;-44
2022/02/11 14:08:23;;;;;;;2.00;0.77;;;5.70;99.90;;;;;;5059043;28;22679;-44
2022/02/11 14:11:09;;;;;;;3.40;1.20;;;5.90;99.90;;;;;;5059162;28;20202;-45
2022/02/11 14:13:39;;;;;;;0.87;0.87;;;5.70;99.90;;;;;;5062841;28;20226;-45
2022/02/11 14:16:06;;;;;;;0.93;0.63;;;5.50;99.90;;;;;;5053661;28;20195;-48
2022/02/11 14:18:34;;;;;;;1.80;0.80;;;5.60;99.90;;;;;;5070075;28;20217;-45
2022/02/11 14:21:01;;;;;;;1.97;0.80;;;5.70;99.90;;;;;;5055278;28;20230;-45
2022/02/11 14:23:28;;;;;;;2.67;0.87;;;5.90;99.90;;;;;;5062279;28;20202;-45
2022/02/11 14:25:55;;;;;;;3.43;1.03;;;6.00;99.90;;;;;;5056664;28;20314;-47
2022/02/11 14:28:25;;;;;;;2.07;0.70;;;6.10;99.90;;;;;;5058567;28;20211;-44
2022/02/11 14:30:53;;;;;;;2.13;1.03;;;6.00;99.90;;;;;;5054237;28;20202;-46
2022/02/11 14:33:20;;;;;;;5.40;1.53;;;6.10;99.90;;;;;;5059999;28;20263;-44
2022/02/11 14:35:47;;;;;;;2.40;0.83;;;6.20;99.90;;;;;;5059760;28;20202;-44
2022/02/11 14:38:14;;;;;;;2.27;1.00;;;6.30;99.90;;;;;;5068107;28;20217;-44
2022/02/11 14:41:46;;;;;;;2.40;0.70;;;6.50;99.90;;;;;;5059366;28;20515;-44
2022/02/11 14:43:28;;;;;;;2.10;0.63;;;6.60;99.90;;;;;;5061372;28;20327;-45
2022/02/11 14:45:57;;;;;;;1.33;0.77;;;6.70;99.90;;;;;;5068375;28;20201;-46
2022/02/11 14:48:23;;;;;;;1.60;0.90;;;6.60;99.90;;;;;;5053024;28;20219;-44
2022/02/11 14:50:50;;;;;;;2.00;0.63;;;6.70;99.90;;;;;;5055848;28;20206;-45
2022/02/11 14:53:17;;;;;;;0.90;0.70;;;6.70;99.90;;;;;;5060507;28;20330;-47
2022/02/11 14:55:44;;;;;;;2.40;0.60;;;6.70;99.90;;;;;;5059387;28;20656;-45
2022/02/11 14:58:10;;;;;;;2.07;0.60;;;6.80;99.90;;;;;;5041501;28;20774;-44
2022/02/11 15:00:41;;;;;;;2.73;0.60;;;6.80;99.90;;;;;;5057712;28;20198;-47
2022/02/11 15:03:15;;;;;;;2.93;0.73;;;6.80;99.90;;;;;;5049856;28;20213;-44
2022/02/11 15:05:42;;;;;;;2.60;0.60;;;6.70;99.90;;;;;;5050616;28;20321;-48
2022/02/11 15:08:09;;;;;;;1.77;0.60;;;6.60;99.90;;;;;;5053217;28;20230;-45
2022/02/11 15:10:36;;;;;;;2.43;0.70;;;6.50;99.90;;;;;;5063146;28;20687;-44
2022/02/11 15:13:08;;;;;;;1.33;0.63;;;6.40;99.90;;;;;;5057876;28;20233;-43
2022/02/11 15:15:36;;;;;;;2.17;0.57;;;6.30;99.90;;;;;;5060636;28;20226;-46
2022/02/11 15:18:05;;;;;;;3.17;0.87;;;6.20;99.90;;;;;;5052200;28;20219;-45
2022/02/11 15:20:34;;;;;;;1.80;0.80;;;6.00;99.90;;;;;;5044265;28;20210;-46
2022/02/11 15:23:00;;;;;;;1.67;0.73;;;5.80;99.90;;;;;;5064149;28;20198;-46
2022/02/11 15:25:27;;;;;;;8.67;0.90;;;5.70;99.90;;;;;;5063039;28;20415;-45
2022/02/11 15:27:54;;;;;;;2.40;0.83;;;5.70;99.90;;;;;;5048174;28;20214;-44
2022/02/11 15:30:21;;;;;;;3.27;0.80;;;5.60;99.90;;;;;;5059080;28;20191;-44
2022/02/11 15:32:48;;;;;;;4.30;0.70;;;5.50;99.90;;;;;;5062322;28;20213;-48
2022/02/11 15:35:14;;;;;;;2.60;0.70;;;5.50;99.90;;;;;;5041404;28;20202;-46
2022/02/11 15:37:43;;;;;;;2.07;0.60;;;5.40;99.90;;;;;;5062719;28;20730;-46
2022/02/11 15:40:11;;;;;;;1.50;0.70;;;5.40;99.90;;;;;;5060226;28;20203;-46
2022/02/11 15:42:38;;;;;;;2.77;0.57;;;5.30;99.90;;;;;;5061039;28;20191;-44
2022/02/11 15:45:06;;;;;;;3.90;0.70;;;5.30;99.90;;;;;;5060621;28;20203;-47
2022/02/11 15:47:33;;;;;;;2.63;0.87;;;5.30;99.90;;;;;;5058854;28;20221;-47
2022/02/11 15:50:00;;;;;;;3.37;0.80;;;5.20;99.90;;;;;;5047836;28;20207;-45
2022/02/11 15:52:27;;;;;;;0.90;0.57;;;5.20;99.90;;;;;;5047646;28;20198;-48
2022/02/11 15:54:55;;;;;;;2.47;0.70;;;5.20;99.90;;;;;;5050243;28;20750;-49
2022/02/11 15:57:22;;;;;;;3.67;0.80;;;5.10;99.90;;;;;;5064309;28;21030;-45
2022/02/11 15:59:50;;;;;;;4.10;0.70;;;5.00;99.90;;;;;;5057612;28;20209;-47
2022/02/11 16:02:17;;;;;;;2.20;0.60;;;5.00;99.90;;;;;;5060973;28;20201;-45
2022/02/11 16:04:44;;;;;;;2.93;0.60;;;5.00;99.90;;;;;;5064116;28;20562;-45
2022/02/11 16:07:11;;;;;;;2.60;0.90;;;4.90;99.90;;;;;;5034667;28;20222;-45
2022/02/11 16:09:38;;;;;;;3.13;1.10;;;4.90;99.90;;;;;;5057176;28;20209;-46